Time;durP1;ratioP1;P1;durP2;ratioP2;P2;SDS_P1;SDS_P2;PMS_P1;PMS_P2;Temp;Humidity;BMP_temperature;BMP_pressure;BME280_temperature;BME280_humidity;BME280_pressure;Samples;Min_cycle;Max_cycle;Signal;HPM_P1;HPM_P2
2022/07/04 00:00:45;;;;;;;37.55;15.27;;;13.30;99.90;;;;;;4978132;28;20049;-79
2022/07/04 00:03:11;;;;;;;35.28;16.15;;;13.20;99.90;;;;;;4995434;28;20125;-78
2022/07/04 00:05:37;;;;;;;38.45;17.42;;;13.20;99.90;;;;;;4978032;28;20042;-81
2022/07/04 00:08:03;;;;;;;30.80;15.80;;;13.20;99.90;;;;;;4995488;28;20454;-80
2022/07/04 00:10:29;;;;;;;36.07;15.73;;;13.20;99.90;;;;;;4994638;28;20050;-79
2022/07/04 00:12:56;;;;;;;37.75;17.27;;;13.20;99.90;;;;;;4994248;28;20046;-78
2022/07/04 00:15:22;;;;;;;;;;;13.10;99.90;;;;;;4996121;28;20046;-80
2022/07/04 00:17:49;;;;;;;36.07;15.60;;;13.10;99.90;;;;;;4995503;28;19922;-78
2022/07/04 00:20:15;;;;;;;40.53;16.52;;;13.00;99.90;;;;;;4995911;28;20112;-81
2022/07/04 00:22:40;;;;;;;33.03;15.82;;;13.00;99.90;;;;;;4977687;28;20537;-80
2022/07/04 00:25:08;;;;;;;34.15;16.10;;;13.10;99.90;;;;;;4993994;28;20047;-80
2022/07/04 00:27:34;;;;;;;39.30;17.00;;;13.00;99.90;;;;;;4977907;28;20351;-79
2022/07/04 00:29:59;;;;;;;34.40;16.73;;;12.90;99.90;;;;;;4994883;28;20053;-79
2022/07/04 00:32:25;;;;;;;32.78;15.48;;;12.90;99.90;;;;;;4961721;28;20151;-80
2022/07/04 00:34:51;;;;;;;33.47;15.70;;;12.90;99.90;;;;;;4994670;28;20316;-79
2022/07/04 00:37:17;;;;;;;36.20;15.00;;;12.80;99.90;;;;;;4977661;28;20286;-80
2022/07/04 00:39:43;;;;;;;34.50;16.30;;;12.80;99.90;;;;;;4977501;28;20043;-79
2022/07/04 00:42:09;;;;;;;32.75;16.23;;;12.80;99.90;;;;;;4962438;28;20363;-81
2022/07/04 00:44:37;;;;;;;33.00;15.02;;;12.80;99.90;;;;;;5003155;28;20057;-81
2022/07/04 00:47:05;;;;;;;32.95;15.77;;;12.80;99.90;;;;;;4998292;28;20084;-80
2022/07/04 00:49:30;;;;;;;32.42;15.15;;;12.70;99.90;;;;;;5014835;28;20041;-80
2022/07/04 00:51:56;;;;;;;34.03;15.48;;;12.70;99.90;;;;;;4997623;28;20076;-81
2022/07/04 00:54:27;;;;;;;34.58;16.40;;;12.70;99.90;;;;;;5014250;28;20042;-81
2022/07/04 00:56:54;;;;;;;34.70;15.27;;;12.70;99.90;;;;;;5014861;28;20041;-80
2022/07/04 00:59:20;;;;;;;36.10;14.77;;;12.70;99.90;;;;;;4997437;28;20496;-80
2022/07/04 01:01:46;;;;;;;38.35;15.45;;;12.70;99.90;;;;;;4996781;28;20116;-80
2022/07/04 01:04:12;;;;;;;34.50;14.98;;;12.60;99.90;;;;;;4996404;28;20042;-81
2022/07/04 01:06:38;;;;;;;33.60;14.80;;;12.60;99.90;;;;;;4997919;28;20259;-78
2022/07/04 01:09:04;;;;;;;37.13;14.85;;;12.60;99.90;;;;;;4996438;28;20042;-80
2022/07/04 01:11:30;;;;;;;32.28;15.90;;;12.60;99.90;;;;;;4995704;28;20136;-80
2022/07/04 01:13:57;;;;;;;31.67;15.38;;;12.60;99.90;;;;;;5013960;28;20454;-81
2022/07/04 01:16:26;;;;;;;31.80;15.88;;;12.50;99.90;;;;;;5013172;28;20462;-80
2022/07/04 01:18:52;;;;;;;31.48;15.18;;;12.50;99.90;;;;;;4999401;28;20076;-79
2022/07/04 01:21:18;;;;;;;31.77;15.38;;;12.50;99.90;;;;;;5016009;28;20054;-80
2022/07/04 01:23:45;;;;;;;32.45;14.35;;;12.50;99.90;;;;;;4980704;28;20046;-79
2022/07/04 01:26:11;;;;;;;35.88;15.68;;;12.50;99.90;;;;;;4999691;28;20053;-82
2022/07/04 01:28:37;;;;;;;33.43;15.83;;;12.50;99.90;;;;;;4983982;28;20124;-80
2022/07/04 01:31:04;;;;;;;30.75;15.20;;;12.50;99.90;;;;;;5019621;28;20068;-80
2022/07/04 01:33:30;;;;;;;29.98;14.60;;;12.50;99.90;;;;;;5017790;28;20057;-81
2022/07/04 01:35:56;;;;;;;33.88;15.32;;;12.50;99.90;;;;;;5024721;28;20058;-82
2022/07/04 01:38:22;;;;;;;33.65;15.15;;;12.40;99.90;;;;;;5002850;28;20054;-81
2022/07/04 01:40:48;;;;;;;36.17;15.23;;;12.40;99.90;;;;;;5029529;28;20056;-81
2022/07/04 01:43:14;;;;;;;29.60;14.80;;;12.30;99.90;;;;;;5029306;28;20049;-80
2022/07/04 01:45:39;;;;;;;39.67;14.52;;;12.40;99.90;;;;;;5023689;28;20056;-80
2022/07/04 01:48:07;;;;;;;35.70;15.00;;;12.30;99.90;;;;;;4983957;28;20053;-79
2022/07/04 01:50:34;;;;;;;36.95;16.02;;;12.30;99.90;;;;;;5026117;28;20052;-79
2022/07/04 01:53:00;;;;;;;;;;;12.30;99.90;;;;;;5009865;28;20052;-80
2022/07/04 01:55:26;;;;;;;29.58;13.75;;;12.30;99.90;;;;;;5012891;28;19921;-80
2022/07/04 01:57:51;;;;;;;29.40;14.05;;;12.30;99.90;;;;;;5013533;28;20057;-82
2022/07/04 02:03:01;;;;;;;32.78;15.85;;;12.30;99.90;;;;;;5015089;28;20057;-81
2022/07/04 02:05:27;;;;;;;31.77;15.70;;;12.30;99.90;;;;;;4999015;28;20415;-81
2022/07/04 02:07:53;;;;;;;33.65;15.10;;;12.30;99.90;;;;;;4999863;28;20038;-81
2022/07/04 02:10:18;;;;;;;33.60;15.43;;;12.20;99.90;;;;;;4992132;28;20034;-81
2022/07/04 02:13:03;;;;;;;32.22;15.07;;;12.20;99.90;;;;;;5018107;28;20030;-80
2022/07/04 02:15:37;;;;;;;38.92;18.13;;;12.30;99.90;;;;;;5012756;28;20077;-80
2022/07/04 02:18:09;;;;;;;35.08;14.95;;;12.30;99.90;;;;;;4994829;28;20195;-80
2022/07/04 02:20:36;;;;;;;30.98;15.20;;;12.30;99.90;;;;;;4996953;28;20049;-82
2022/07/04 02:23:03;;;;;;;40.83;16.48;;;12.30;99.90;;;;;;5012452;28;20049;-81
2022/07/04 02:25:29;;;;;;;35.78;15.48;;;12.30;99.90;;;;;;5025985;28;20107;-80
2022/07/04 02:27:55;;;;;;;33.63;15.43;;;12.30;99.90;;;;;;4976697;28;20046;-81
2022/07/04 02:30:22;;;;;;;37.72;16.13;;;12.30;99.90;;;;;;4979529;28;20455;-81
2022/07/04 02:32:47;;;;;;;37.78;16.75;;;12.20;99.90;;;;;;4989634;28;20061;-81
2022/07/04 02:35:13;;;;;;;38.30;15.93;;;12.20;99.90;;;;;;5021991;28;20045;-80
2022/07/04 02:37:39;;;;;;;37.60;15.20;;;12.20;99.90;;;;;;5006917;28;20486;-79
2022/07/04 02:40:06;;;;;;;40.88;16.38;;;12.20;99.90;;;;;;5005850;28;20046;-81
2022/07/04 02:42:34;;;;;;;35.92;15.43;;;12.10;99.90;;;;;;4989587;28;20061;-81
2022/07/04 02:45:00;;;;;;;34.35;16.33;;;12.10;99.90;;;;;;5005077;28;20084;-82
2022/07/04 02:47:26;;;;;;;39.13;16.02;;;12.10;99.90;;;;;;5034476;28;20067;-81
2022/07/04 02:49:53;;;;;;;35.25;15.80;;;12.10;99.90;;;;;;4999543;28;20108;-80
2022/07/04 02:52:18;;;;;;;40.85;15.90;;;12.10;99.90;;;;;;4989934;28;20104;-81
2022/07/04 02:54:52;;;;;;;34.97;15.73;;;12.10;99.90;;;;;;5011163;28;20034;-80
2022/07/04 02:57:20;;;;;;;37.70;16.00;;;12.10;99.90;;;;;;4968595;28;20485;-80
2022/07/04 02:59:46;;;;;;;32.03;15.73;;;12.10;99.90;;;;;;4982426;28;20061;-80
2022/07/04 03:02:12;;;;;;;31.33;15.57;;;12.00;99.90;;;;;;4999439;28;20502;-81
2022/07/04 03:04:39;;;;;;;30.67;15.35;;;12.00;99.90;;;;;;4984207;28;20042;-80
2022/07/04 03:07:07;;;;;;;31.98;15.30;;;12.10;99.90;;;;;;5017669;28;20049;-80
2022/07/04 03:09:33;;;;;;;33.40;14.48;;;12.10;99.90;;;;;;5019912;28;20494;-80
2022/07/04 03:11:59;;;;;;;31.27;15.00;;;12.10;99.90;;;;;;5016175;28;20045;-80
2022/07/04 03:14:25;;;;;;;30.95;14.88;;;12.10;99.90;;;;;;4999923;28;20132;-80
2022/07/04 03:16:51;;;;;;;30.60;14.40;;;12.10;99.90;;;;;;4998560;28;20132;-79
2022/07/04 03:19:17;;;;;;;38.33;15.38;;;12.10;99.90;;;;;;4998332;28;20057;-81
2022/07/04 03:21:43;;;;;;;36.10;16.50;;;12.10;99.90;;;;;;4982755;28;20398;-82
2022/07/04 03:24:10;;;;;;;35.88;16.08;;;12.00;99.90;;;;;;4983636;28;20293;-80
2022/07/04 03:26:36;;;;;;;35.65;16.10;;;12.00;99.90;;;;;;5006775;28;20069;-82
2022/07/04 03:29:02;;;;;;;37.40;15.45;;;12.00;99.90;;;;;;5004814;28;20346;-81
2022/07/04 03:31:29;;;;;;;33.67;15.80;;;12.00;99.90;;;;;;5032411;28;20052;-82
2022/07/04 03:33:55;;;;;;;;;;;12.10;99.90;;;;;;5018104;28;20125;-82
2022/07/04 03:36:21;;;;;;;36.37;16.23;;;12.10;99.90;;;;;;5017908;28;19925;-81
2022/07/04 03:38:47;;;;;;;37.17;15.98;;;12.00;99.90;;;;;;5036021;28;20133;-83
2022/07/04 03:41:13;;;;;;;35.38;16.13;;;12.10;99.90;;;;;;5030840;28;20038;-83
2022/07/04 03:43:39;;;;;;;33.93;15.60;;;12.10;99.90;;;;;;5003656;28;20030;-81
2022/07/04 03:46:05;;;;;;;34.60;16.15;;;12.10;99.90;;;;;;4999768;28;20053;-81
2022/07/04 03:48:30;;;;;;;38.92;16.60;;;12.20;99.90;;;;;;5015899;28;20129;-80
2022/07/04 03:50:56;;;;;;;36.00;16.13;;;12.30;99.90;;;;;;4997870;28;20050;-81
2022/07/04 03:53:22;;;;;;;31.63;16.08;;;12.40;99.90;;;;;;5015747;28;20046;-80
2022/07/04 03:55:48;;;;;;;31.20;16.33;;;12.40;99.90;;;;;;5016774;28;20088;-81
2022/07/04 03:58:14;;;;;;;30.55;15.90;;;12.40;99.90;;;;;;4997942;28;20053;-80
2022/07/04 04:00:41;;;;;;;32.92;15.30;;;12.50;99.90;;;;;;5017193;28;20054;-80
2022/07/04 04:05:26;;;;;;;35.33;15.48;;;12.50;99.90;;;;;;5023575;28;20058;-81
2022/07/04 04:05:54;;;;;;;33.97;15.40;;;12.50;99.90;;;;;;5022932;28;20054;-80
2022/07/04 04:08:20;;;;;;;28.75;14.93;;;12.50;99.90;;;;;;5002671;28;20053;-81
2022/07/04 04:10:46;;;;;;;32.40;15.82;;;12.50;99.90;;;;;;5015027;28;20076;-80
2022/07/04 04:13:11;;;;;;;35.95;15.98;;;12.60;99.90;;;;;;4989403;28;20050;-80
2022/07/04 04:15:37;;;;;;;32.83;15.43;;;12.60;99.90;;;;;;4983767;28;20085;-78
2022/07/04 04:18:03;;;;;;;31.35;15.32;;;12.70;99.90;;;;;;5019981;28;20112;-81
2022/07/04 04:20:29;;;;;;;31.85;16.17;;;12.80;99.90;;;;;;4997981;28;20068;-80
2022/07/04 04:22:58;;;;;;;40.63;15.40;;;12.90;99.90;;;;;;4999625;28;20448;-79
2022/07/04 04:25:24;;;;;;;31.67;15.73;;;12.90;99.90;;;;;;5001099;28;20201;-80
2022/07/04 04:27:50;;;;;;;35.85;17.27;;;13.00;99.90;;;;;;5002506;28;20132;-80
2022/07/04 04:30:15;;;;;;;35.15;15.13;;;13.00;99.90;;;;;;5015376;28;20151;-79
2022/07/04 04:32:41;;;;;;;27.55;14.07;;;13.10;99.90;;;;;;4997092;28;20037;-79
2022/07/04 04:35:07;;;;;;;28.77;13.93;;;13.20;99.90;;;;;;4981580;28;20092;-80
2022/07/04 04:37:33;;;;;;;34.00;14.13;;;13.30;99.90;;;;;;5014737;28;20044;-81
2022/07/04 04:39:59;;;;;;;34.42;15.07;;;13.40;99.90;;;;;;4964925;28;20293;-78
2022/07/04 04:42:25;;;;;;;35.20;14.05;;;13.40;99.90;;;;;;4997266;28;20050;-81
2022/07/04 04:44:51;;;;;;;34.55;14.23;;;13.50;99.90;;;;;;4993500;28;20066;-81
2022/07/04 04:47:18;;;;;;;27.83;12.88;;;13.50;99.90;;;;;;4979776;28;20108;-80
2022/07/04 04:49:43;;;;;;;30.08;13.52;;;13.50;99.90;;;;;;4997040;28;20050;-79
2022/07/04 04:52:11;;;;;;;28.65;12.82;;;13.60;99.90;;;;;;4994554;28;20050;-82
2022/07/04 04:54:37;;;;;;;33.08;13.65;;;13.70;99.90;;;;;;4993874;28;20050;-80
2022/07/04 04:57:03;;;;;;;26.58;12.98;;;13.70;99.90;;;;;;4997330;28;20046;-82
2022/07/04 04:59:29;;;;;;;28.75;12.90;;;13.80;99.90;;;;;;4993863;28;20046;-81
2022/07/04 05:01:55;;;;;;;32.80;13.23;;;13.80;99.90;;;;;;4993839;28;20042;-80
2022/07/04 05:04:21;;;;;;;30.02;13.15;;;13.80;99.90;;;;;;4993528;28;20042;-78
2022/07/04 05:06:47;;;;;;;27.98;12.98;;;13.80;99.90;;;;;;4962169;28;20065;-78
2022/07/04 05:09:13;;;;;;;30.25;13.68;;;13.90;99.90;;;;;;4994124;28;20046;-79
2022/07/04 05:11:38;;;;;;;34.30;13.60;;;13.90;99.90;;;;;;4994543;28;20224;-79
2022/07/04 05:14:05;;;;;;;34.53;13.75;;;13.90;99.90;;;;;;4993284;28;20103;-79
2022/07/04 05:16:30;;;;;;;33.42;13.13;;;14.00;99.90;;;;;;4977866;28;20046;-79
2022/07/04 05:18:56;;;;;;;29.63;13.20;;;14.00;99.90;;;;;;4993513;28;20042;-78
2022/07/04 05:21:22;;;;;;;31.75;12.82;;;14.10;99.90;;;;;;4979166;28;20054;-80
2022/07/04 05:23:48;;;;;;;29.20;13.25;;;14.10;99.90;;;;;;4994464;28;20104;-81
2022/07/04 05:26:14;;;;;;;32.42;14.57;;;14.20;99.90;;;;;;4998848;28;20050;-79
2022/07/04 05:28:39;;;;;;;33.22;14.02;;;14.20;99.90;;;;;;4997365;28;20050;-79
2022/07/04 05:31:05;;;;;;;27.00;12.57;;;14.30;99.90;;;;;;4994265;28;20456;-79
2022/07/04 05:33:31;;;;;;;27.77;13.73;;;14.30;99.90;;;;;;4963999;28;20056;-78
2022/07/04 05:35:57;;;;;;;28.35;14.07;;;14.30;99.90;;;;;;4998285;28;20046;-80
2022/07/04 05:38:22;;;;;;;32.08;14.73;;;14.40;99.90;;;;;;4999396;28;20046;-79
2022/07/04 05:40:48;;;;;;;31.13;14.45;;;14.40;99.90;;;;;;4998158;28;20046;-79
2022/07/04 05:43:14;;;;;;;34.63;14.37;;;14.40;99.90;;;;;;4969756;28;20050;-83
2022/07/04 05:45:40;;;;;;;32.55;13.45;;;14.40;99.90;;;;;;4997566;28;20050;-79
2022/07/04 05:48:06;;;;;;;29.35;13.35;;;14.50;99.90;;;;;;4996554;28;20050;-78
2022/07/04 05:50:32;;;;;;;25.98;13.35;;;14.50;99.90;;;;;;4997188;28;20478;-81
2022/07/04 05:52:59;;;;;;;30.35;13.10;;;14.60;99.90;;;;;;4981148;28;20098;-77
2022/07/04 05:55:25;;;;;;;26.20;13.63;;;14.70;99.90;;;;;;4979336;28;20046;-80
2022/07/04 05:57:50;;;;;;;31.02;12.98;;;14.70;99.90;;;;;;4996863;28;20046;-78
2022/07/04 06:00:16;;;;;;;32.75;13.30;;;14.80;99.90;;;;;;4997222;28;20057;-79
2022/07/04 06:02:42;;;;;;;34.22;13.18;;;14.90;99.90;;;;;;4997841;28;20050;-81
2022/07/04 06:05:08;;;;;;;;;;;14.90;99.90;;;;;;4999619;28;20384;-79
2022/07/04 06:07:34;;;;;;;27.80;13.67;;;15.00;99.90;;;;;;4996788;28;19922;-80
2022/07/04 06:10:00;;;;;;;25.17;11.45;;;15.00;99.90;;;;;;4996963;28;20050;-80
2022/07/04 06:12:26;;;;;;;27.95;12.93;;;15.10;99.90;;;;;;4980524;28;20057;-80
2022/07/04 06:14:52;;;;;;;26.30;13.30;;;15.20;99.90;;;;;;4994973;28;20502;-82
2022/07/04 06:17:18;;;;;;;31.20;12.23;;;15.20;99.90;;;;;;4963232;28;20050;-81
2022/07/04 06:19:43;;;;;;;27.75;12.43;;;15.20;99.90;;;;;;4980681;28;20047;-81
2022/07/04 06:22:09;;;;;;;26.45;12.80;;;15.30;99.90;;;;;;4981314;28;20081;-82
2022/07/04 06:24:35;;;;;;;27.80;13.20;;;15.40;99.90;;;;;;4995726;28;20107;-78
2022/07/04 06:27:03;;;;;;;29.27;12.13;;;15.40;99.90;;;;;;4996049;28;20055;-81
2022/07/04 06:29:28;;;;;;;27.80;12.82;;;15.50;99.90;;;;;;4997534;28;20563;-80
2022/07/04 06:31:54;;;;;;;31.05;13.20;;;15.80;99.90;;;;;;4997646;28;20130;-80
2022/07/04 06:37:04;;;;;;;29.42;12.23;;;16.30;99.90;;;;;;4995113;28;20050;-81
2022/07/04 06:39:31;;;;;;;24.67;11.15;;;16.50;99.90;;;;;;4994852;28;20497;-80
2022/07/04 06:41:57;;;;;;;24.80;10.65;;;16.50;99.90;;;;;;4994829;28;20053;-79
2022/07/04 06:44:22;;;;;;;28.92;11.60;;;16.60;99.90;;;;;;5003222;28;20061;-81
2022/07/04 06:46:48;;;;;;;21.83;10.55;;;16.70;99.90;;;;;;4999011;28;20093;-80
2022/07/04 06:49:14;;;;;;;26.13;10.70;;;16.90;99.90;;;;;;4998397;28;20053;-78
2022/07/04 06:51:40;;;;;;;26.77;10.37;;;17.20;99.90;;;;;;4983539;28;20445;-81
2022/07/04 06:54:06;;;;;;;31.23;10.70;;;17.30;99.90;;;;;;4984205;28;20072;-80
2022/07/04 06:56:34;;;;;;;28.40;11.13;;;17.30;99.90;;;;;;5017661;28;20108;-82
2022/07/04 06:59:02;;;;;;;27.40;10.05;;;17.30;99.90;;;;;;5000932;28;20041;-79
2022/07/04 07:01:28;;;;;;;28.23;10.48;;;17.30;99.90;;;;;;4984328;28;20045;-78
2022/07/04 07:03:54;;;;;;;28.67;10.20;;;17.30;99.90;;;;;;5016526;28;20049;-79
2022/07/04 07:06:23;;;;;;;26.33;10.32;;;17.20;99.90;;;;;;5015332;28;20473;-80
2022/07/04 07:08:49;;;;;;;28.00;9.80;;;17.30;99.90;;;;;;4984653;28;20058;-82
2022/07/04 07:11:18;;;;;;;21.97;10.27;;;17.40;99.90;;;;;;5003128;28;20503;-80
2022/07/04 07:13:49;;;;;;;26.92;10.18;;;17.50;99.90;;;;;;5023891;28;20548;-84
2022/07/04 07:16:15;;;;;;;24.13;10.00;;;17.70;99.90;;;;;;5002662;28;20096;-82
2022/07/04 07:18:41;;;;;;;29.15;9.73;;;17.90;99.90;;;;;;5020179;28;20477;-81
2022/07/04 07:21:07;;;;;;;27.50;9.40;;;18.10;99.90;;;;;;5002667;28;20136;-80
2022/07/04 07:23:40;;;;;;;33.30;9.17;;;18.40;99.90;;;;;;5004258;28;20398;-81
2022/07/04 07:26:13;;;;;;;30.13;9.70;;;18.60;99.90;;;;;;5020031;28;20275;-77
2022/07/04 07:28:38;;;;;;;31.77;9.00;;;18.80;99.90;;;;;;5001943;28;20073;-81
2022/07/04 07:31:04;;;;;;;24.70;8.90;;;18.80;99.90;;;;;;5002931;28;20128;-81
2022/07/04 07:33:30;;;;;;;22.97;8.27;;;18.70;99.90;;;;;;4971345;28;20054;-76
2022/07/04 07:35:56;;;;;;;26.63;8.27;;;18.80;99.90;;;;;;5003954;28;20196;-81
2022/07/04 07:38:22;;;;;;;29.70;9.33;;;18.70;99.90;;;;;;4988337;28;20389;-80
2022/07/04 07:40:48;;;;;;;21.73;7.57;;;18.60;99.90;;;;;;5001463;28;20379;-78
2022/07/04 07:43:14;;;;;;;23.53;7.97;;;18.70;99.90;;;;;;4999760;28;20042;-77
2022/07/04 07:45:39;;;;;;;25.87;8.20;;;18.70;99.90;;;;;;5017294;28;20062;-79
2022/07/04 07:48:06;;;;;;;24.20;7.90;;;18.70;99.90;;;;;;5000698;28;20485;-79
2022/07/04 07:50:32;;;;;;;22.50;8.65;;;19.00;99.90;;;;;;4982488;28;20096;-79
2022/07/04 07:52:58;;;;;;;26.10;8.15;;;19.00;99.90;;;;;;5015867;28;20050;-77
2022/07/04 07:55:24;;;;;;;21.20;8.10;;;19.30;99.90;;;;;;4982009;28;20053;-79
2022/07/04 07:57:49;;;;;;;24.57;6.60;;;19.30;99.90;;;;;;4998790;28;20041;-79
2022/07/04 08:00:16;;;;;;;28.40;7.77;;;19.40;99.90;;;;;;4982757;28;20133;-79
2022/07/04 08:05:26;;;;;;;20.30;7.53;;;19.90;99.90;;;;;;5006098;28;20049;-77
2022/07/04 08:07:51;;;;;;;16.23;7.10;;;20.00;99.90;;;;;;5023527;28;20144;-77
2022/07/04 08:10:17;;;;;;;22.73;7.13;;;20.20;99.90;;;;;;4988310;28;20089;-78
2022/07/04 08:12:46;;;;;;;19.37;7.43;;;20.60;99.90;;;;;;5022857;28;20140;-80
2022/07/04 08:15:11;;;;;;;20.80;7.50;;;20.70;99.90;;;;;;4988761;28;20087;-79
2022/07/04 08:17:37;;;;;;;22.33;6.63;;;20.50;99.90;;;;;;5004309;28;20045;-77
2022/07/04 08:20:04;;;;;;;22.37;6.90;;;20.30;99.90;;;;;;5002413;28;20131;-78
2022/07/04 08:22:29;;;;;;;22.35;7.32;;;20.10;99.90;;;;;;5003344;28;20056;-78
2022/07/04 08:24:55;;;;;;;23.03;7.37;;;20.00;99.90;;;;;;4985482;28;20398;-79
2022/07/04 08:27:24;;;;;;;23.67;6.30;;;19.90;99.90;;;;;;5003406;28;20046;-78
2022/07/04 08:29:49;;;;;;;17.92;5.25;;;20.00;99.90;;;;;;4985129;28;20042;-81
2022/07/04 08:32:15;;;;;;;19.77;4.60;;;20.00;99.90;;;;;;4998231;28;20402;-79
2022/07/04 08:34:46;;;;;;;16.73;4.60;;;20.10;99.90;;;;;;4997955;28;20061;-78
2022/07/04 08:37:12;;;;;;;18.00;4.38;;;20.20;99.90;;;;;;4998154;28;20050;-79
2022/07/04 08:39:38;;;;;;;18.48;4.53;;;20.20;99.90;;;;;;4981935;28;20107;-79
2022/07/04 08:42:12;;;;;;;16.83;4.37;;;20.40;99.90;;;;;;4997035;28;20141;-78
2022/07/04 08:44:41;;;;;;;12.80;3.40;;;20.70;99.90;;;;;;5014796;28;20127;-76
2022/07/04 08:47:12;;;;;;;11.13;3.10;;;20.90;99.90;;;;;;4997307;28;20104;-76
2022/07/04 08:49:41;;;;;;;13.45;3.38;;;20.90;99.90;;;;;;4981516;28;20061;-76
2022/07/04 08:52:11;;;;;;;12.55;3.63;;;21.00;99.90;;;;;;5014240;28;20058;-79
2022/07/04 09:00:08;;;;;;;13.15;3.13;;;21.20;99.90;;;;;;4998421;28;19921;-76
2022/07/04 09:02:37;;;;;;;13.57;3.80;;;21.10;99.90;;;;;;4984820;28;20062;-79
2022/07/04 09:05:05;;;;;;;16.60;4.25;;;20.90;99.90;;;;;;5000783;28;20095;-80
2022/07/04 09:07:31;;;;;;;17.30;4.50;;;20.70;99.90;;;;;;5015542;28;20058;-77
2022/07/04 09:09:58;;;;;;;15.18;3.90;;;20.40;99.90;;;;;;5018109;28;20054;-80
2022/07/04 09:12:24;;;;;;;13.18;3.60;;;20.10;99.90;;;;;;5014124;28;20057;-79
2022/07/04 09:14:53;;;;;;;13.10;3.40;;;20.20;99.90;;;;;;4980611;28;20042;-79
2022/07/04 09:17:19;;;;;;;10.98;3.53;;;20.40;99.90;;;;;;4980739;28;20110;-79
2022/07/04 09:20:04;;;;;;;12.40;3.40;;;20.60;99.90;;;;;;4995935;28;20122;-80
2022/07/04 09:22:30;;;;;;;14.13;3.17;;;20.70;99.90;;;;;;4980576;28;20054;-79
2022/07/04 09:24:56;;;;;;;13.00;3.00;;;21.20;99.90;;;;;;4980470;28;20095;-76
2022/07/04 09:27:32;;;;;;;9.83;2.73;;;21.60;99.90;;;;;;4996896;28;20081;-77
2022/07/04 09:29:59;;;;;;;9.80;3.22;;;21.90;99.90;;;;;;4980697;28;20045;-80
2022/07/04 09:33:00;;;;;;;10.18;2.70;;;22.10;99.90;;;;;;5013530;28;20120;-78
2022/07/04 09:35:31;;;;;;;6.93;2.47;;;22.30;99.90;;;;;;4980872;28;20133;-77
2022/07/04 09:38:04;;;;;;;7.32;2.53;;;22.40;99.90;;;;;;4997241;28;20052;-74
2022/07/04 09:40:33;;;;;;;13.07;2.78;;;22.20;99.90;;;;;;4996841;28;20042;-77
2022/07/04 09:43:11;;;;;;;12.23;2.60;;;22.00;99.90;;;;;;4996093;28;20129;-77
2022/07/04 09:45:56;;;;;;;11.93;3.00;;;21.80;99.90;;;;;;4980055;28;20136;-79
2022/07/04 09:48:23;;;;;;;9.13;2.50;;;21.50;99.90;;;;;;5014650;28;20081;-81
2022/07/04 09:50:49;;;;;;;8.50;2.50;;;21.40;99.90;;;;;;5014222;28;20052;-79
2022/07/04 09:53:15;;;;;;;7.23;2.10;;;21.50;99.90;;;;;;4996790;28;20443;-79
2022/07/04 09:55:41;;;;;;;6.07;1.60;;;21.30;99.90;;;;;;4996779;28;20045;-77
2022/07/04 09:58:12;;;;;;;6.27;2.30;;;21.20;99.50;;;;;;4996469;28;20077;-78
2022/07/04 10:00:40;;;;;;;6.88;2.17;;;20.90;99.90;;;;;;4996464;28;20130;-78
2022/07/04 10:03:20;;;;;;;7.57;2.25;;;20.80;99.90;;;;;;4997133;28;20104;-77
2022/07/04 10:06:06;;;;;;;9.68;2.70;;;20.80;99.90;;;;;;5014949;28;20157;-77
2022/07/04 10:08:35;;;;;;;8.57;2.03;;;21.00;99.90;;;;;;5001050;28;20111;-77
2022/07/04 10:11:03;;;;;;;5.00;1.88;;;21.10;99.80;;;;;;4999068;28;20050;-78
2022/07/04 10:13:30;;;;;;;7.47;2.15;;;21.10;98.80;;;;;;5015497;28;20053;-79
2022/07/04 10:15:56;;;;;;;5.80;1.70;;;21.10;99.50;;;;;;4997096;28;20392;-76
2022/07/04 10:18:23;;;;;;;9.17;1.90;;;21.10;99.20;;;;;;4996913;28;20046;-77
2022/07/04 10:20:54;;;;;;;7.78;1.80;;;21.10;99.20;;;;;;4997182;28;20277;-80
2022/07/04 10:23:21;;;;;;;7.85;2.05;;;21.00;99.00;;;;;;5013827;28;20050;-78
2022/07/04 10:25:48;;;;;;;9.25;2.35;;;21.00;99.50;;;;;;4996460;28;20125;-80
2022/07/04 10:28:16;;;;;;;9.38;2.10;;;21.10;99.40;;;;;;4997174;28;20042;-76
2022/07/04 10:30:42;;;;;;;8.07;2.03;;;21.40;98.60;;;;;;5013284;28;20046;-78
2022/07/04 10:33:10;;;;;;;9.52;2.33;;;21.40;98.70;;;;;;4996157;28;20085;-79
2022/07/04 10:35:56;;;;;;;7.18;1.75;;;21.70;98.30;;;;;;4995325;28;20050;-79
2022/07/04 10:38:25;;;;;;;6.28;1.80;;;21.90;98.30;;;;;;4996097;28;20116;-80
2022/07/04 10:40:54;;;;;;;5.15;1.80;;;22.10;97.50;;;;;;4996263;28;20068;-79
2022/07/04 10:43:38;;;;;;;8.73;1.40;;;22.20;96.80;;;;;;5016307;28;20138;-77
2022/07/04 10:46:16;;;;;;;6.88;1.48;;;22.10;94.50;;;;;;4999204;28;20046;-80
2022/07/04 10:48:51;;;;;;;6.97;1.40;;;22.10;94.20;;;;;;5016458;28;20394;-76
2022/07/04 10:51:33;;;;;;;6.87;1.63;;;22.10;94.30;;;;;;5000017;28;20390;-79
2022/07/04 10:54:03;;;;;;;5.60;1.58;;;22.00;94.80;;;;;;5017446;28;20041;-77
2022/07/04 10:56:29;;;;;;;5.47;1.70;;;22.10;94.90;;;;;;5017399;28;20061;-80
2022/07/04 10:58:57;;;;;;;5.87;1.90;;;22.20;94.30;;;;;;4999870;28;20054;-78
2022/07/04 11:01:23;;;;;;;10.05;2.20;;;22.10;93.40;;;;;;4999113;28;20041;-77
2022/07/04 11:03:51;;;;;;;6.53;1.70;;;22.10;93.80;;;;;;4983432;28;20048;-78
2022/07/04 11:06:38;;;;;;;5.03;1.80;;;22.20;94.00;;;;;;5017193;28;20389;-76
2022/07/04 11:09:15;;;;;;;7.78;1.80;;;22.20;94.30;;;;;;5016013;28;20567;-80
2022/07/04 11:11:54;;;;;;;5.32;1.58;;;22.10;94.00;;;;;;4999214;28;20056;-79
2022/07/04 11:14:45;;;;;;;5.78;2.13;;;22.00;93.00;;;;;;5017342;28;20085;-81
2022/07/04 11:17:33;;;;;;;6.93;1.83;;;21.90;93.60;;;;;;4999544;28;20474;-80
2022/07/04 11:20:03;;;;;;;5.88;1.80;;;22.10;93.70;;;;;;4967061;28;20194;-77
2022/07/04 11:22:31;;;;;;;4.80;1.90;;;22.30;93.70;;;;;;4983730;28;20528;-80
2022/07/04 11:24:57;;;;;;;4.60;1.80;;;22.60;93.10;;;;;;4982815;28;20042;-76
2022/07/04 11:27:23;;;;;;;6.72;1.50;;;22.80;93.20;;;;;;4966217;28;20058;-78
2022/07/04 11:29:53;;;;;;;10.77;1.60;;;22.70;93.50;;;;;;4982196;28;20136;-79
2022/07/04 11:32:30;;;;;;;6.47;1.35;;;22.40;93.30;;;;;;4998865;28;20046;-75
2022/07/04 11:34:56;;;;;;;4.68;1.58;;;22.50;92.80;;;;;;5016495;28;20038;-79
2022/07/04 11:37:22;;;;;;;7.00;1.47;;;22.50;92.80;;;;;;4998233;28;20104;-79
2022/07/04 11:39:52;;;;;;;7.50;1.60;;;22.40;92.70;;;;;;5016434;28;20429;-79
2022/07/04 11:45:07;;;;;;;6.57;1.23;;;22.30;92.50;;;;;;5016257;28;20081;-80
2022/07/04 11:47:38;;;;;;;5.75;1.50;;;22.20;92.60;;;;;;4998533;28;20132;-79
2022/07/04 11:50:11;;;;;;;5.72;1.90;;;22.20;92.40;;;;;;4999226;28;20053;-78
2022/07/04 11:52:38;;;;;;;5.05;1.27;;;22.00;92.90;;;;;;4998869;28;20057;-80
2022/07/04 11:55:05;;;;;;;4.80;1.50;;;21.80;92.40;;;;;;5015120;28;20137;-78
2022/07/04 11:57:39;;;;;;;7.00;1.65;;;21.80;92.80;;;;;;4998175;28;20045;-79
2022/07/04 12:00:16;;;;;;;5.28;1.65;;;21.80;93.30;;;;;;5015843;28;20042;-76
2022/07/04 12:02:43;;;;;;;4.88;1.83;;;22.00;92.70;;;;;;4998614;28;20046;-77
2022/07/04 12:05:11;;;;;;;6.43;1.40;;;22.20;92.60;;;;;;4998361;28;20042;-80
2022/07/04 12:07:42;;;;;;;7.05;1.77;;;22.30;92.50;;;;;;4981951;28;20089;-77
2022/07/04 12:10:09;;;;;;;5.03;1.42;;;22.50;92.20;;;;;;4998678;28;20053;-80
2022/07/04 12:12:35;;;;;;;4.68;1.33;;;22.40;92.10;;;;;;4998280;28;20090;-77
2022/07/04 12:15:06;;;;;;;4.97;1.83;;;22.60;91.40;;;;;;5016140;28;20174;-78
2022/07/04 12:17:36;;;;;;;5.68;1.42;;;22.50;91.40;;;;;;4999506;28;20045;-80
2022/07/04 12:20:11;;;;;;;3.90;1.27;;;22.70;90.90;;;;;;4999814;28;20052;-80
2022/07/04 12:22:49;;;;;;;6.00;1.48;;;22.80;91.70;;;;;;5015384;28;20053;-77
2022/07/04 12:25:31;;;;;;;6.97;1.45;;;22.80;91.00;;;;;;5016359;28;20048;-80
2022/07/04 12:28:11;;;;;;;5.03;1.33;;;22.80;91.90;;;;;;4999253;28;20060;-78
2022/07/04 12:30:49;;;;;;;5.30;1.50;;;22.60;91.20;;;;;;4998998;28;20061;-79
2022/07/04 12:33:21;;;;;;;5.13;1.75;;;22.50;91.30;;;;;;5016129;28;20383;-83
2022/07/04 12:35:51;;;;;;;5.68;1.50;;;22.60;90.40;;;;;;4983196;28;20050;-79
2022/07/04 12:38:21;;;;;;;3.47;1.45;;;22.70;90.70;;;;;;4999204;28;20076;-82
2022/07/04 12:41:02;;;;;;;5.28;1.35;;;22.70;91.10;;;;;;5015702;28;20137;-77
2022/07/04 12:43:42;;;;;;;7.00;1.40;;;22.70;90.90;;;;;;4983923;28;20381;-78
2022/07/04 12:46:10;;;;;;;4.03;1.00;;;22.50;90.70;;;;;;4978665;28;20386;-79
2022/07/04 12:48:37;;;;;;;4.80;1.30;;;22.50;91.00;;;;;;4977611;28;20053;-79
2022/07/04 12:51:17;;;;;;;4.28;1.17;;;22.50;90.40;;;;;;4977291;28;20086;-80
2022/07/04 12:53:45;;;;;;;2.78;1.05;;;22.50;90.20;;;;;;4977668;28;20043;-79
2022/07/04 12:56:31;;;;;;;6.32;1.10;;;22.60;90.20;;;;;;4976564;28;20114;-75